sensor_id;sensor_type;location;lat;lon;timestamp;pressure;altitude;pressure_sealevel;temperature;humidity
11017;BME280;54687;50.800;6.772;2023-09-18T00:01:11;91816.72;;;-144.06;27.72
11017;BME280;54687;50.800;6.772;2023-09-18T00:03:38;91848.44;;;-144.06;27.82
11017;BME280;54687;50.800;6.772;2023-09-18T00:06:05;91835.75;;;-144.06;27.70
11017;BME280;54687;50.800;6.772;2023-09-18T00:08:32;91818.84;;;-144.06;27.89
11017;BME280;54687;50.800;6.772;2023-09-18T00:11:00;91755.38;;;-144.06;27.68
11017;BME280;54687;50.800;6.772;2023-09-18T00:13:26;91856.91;;;-144.06;27.84
11017;BME280;54687;50.800;6.772;2023-09-18T00:15:54;91837.88;;;-144.06;27.79
11017;BME280;54687;50.800;6.772;2023-09-18T00:18:27;91884.41;;;-144.06;27.72
11017;BME280;54687;50.800;6.772;2023-09-18T00:20:54;91869.59;;;-144.06;27.95
11017;BME280;54687;50.800;6.772;2023-09-18T00:23:23;91903.44;;;-144.06;27.69
11017;BME280;54687;50.800;6.772;2023-09-18T00:25:52;91882.28;;;-144.06;27.87
11017;BME280;54687;50.800;6.772;2023-09-18T00:28:24;91941.50;;;-144.06;28.02
11017;BME280;54687;50.800;6.772;2023-09-18T00:30:55;91979.59;;;-144.06;28.11
11017;BME280;54687;50.800;6.772;2023-09-18T00:33:25;91979.59;;;-144.06;27.83
11017;BME280;54687;50.800;6.772;2023-09-18T00:35:55;91941.50;;;-144.06;27.73
11017;BME280;54687;50.800;6.772;2023-09-18T00:38:27;91928.81;;;-144.06;27.72
11017;BME280;54687;50.800;6.772;2023-09-18T00:40:57;91937.28;;;-144.06;28.06
11017;BME280;54687;50.800;6.772;2023-09-18T00:43:31;91941.50;;;-144.06;27.81
11017;BME280;54687;50.800;6.772;2023-09-18T00:46:13;91949.97;;;-144.06;27.94
11017;BME280;54687;50.800;6.772;2023-09-18T00:48:40;91945.75;;;-144.06;27.70
11017;BME280;54687;50.800;6.772;2023-09-18T00:51:09;91947.84;;;-144.06;27.70
11017;BME280;54687;50.800;6.772;2023-09-18T00:53:37;91916.13;;;-144.06;27.79
11017;BME280;54687;50.800;6.772;2023-09-18T00:56:04;91911.91;;;-144.06;27.84
11017;BME280;54687;50.800;6.772;2023-09-18T00:58:34;91954.19;;;-144.06;27.87
11017;BME280;54687;50.800;6.772;2023-09-18T01:01:03;91977.47;;;-144.06;27.67
11017;BME280;54687;50.800;6.772;2023-09-18T01:03:32;91960.53;;;-144.06;27.71
11017;BME280;54687;50.800;6.772;2023-09-18T01:06:02;91935.16;;;-144.06;27.83
11017;BME280;54687;50.800;6.772;2023-09-18T01:08:32;91964.78;;;-144.06;27.96
11017;BME280;54687;50.800;6.772;2023-09-18T01:11:05;92000.75;;;-144.06;27.74
11017;BME280;54687;50.800;6.772;2023-09-18T01:13:40;91943.63;;;-144.06;27.82
11017;BME280;54687;50.800;6.772;2023-09-18T01:16:11;92009.19;;;-144.06;27.86
11017;BME280;54687;50.800;6.772;2023-09-18T01:18:48;92047.28;;;-144.06;27.77
11017;BME280;54687;50.800;6.772;2023-09-18T01:21:15;92068.41;;;-144.06;27.99
11017;BME280;54687;50.800;6.772;2023-09-18T01:23:43;92043.03;;;-144.06;27.87
11017;BME280;54687;50.800;6.772;2023-09-18T01:26:10;92017.66;;;-144.06;27.91
11017;BME280;54687;50.800;6.772;2023-09-18T01:28:36;92074.75;;;-144.06;27.82
11017;BME280;54687;50.800;6.772;2023-09-18T01:31:03;92104.38;;;-144.06;28.14
11017;BME280;54687;50.800;6.772;2023-09-18T01:33:30;92174.19;;;-144.06;27.96
11017;BME280;54687;50.800;6.772;2023-09-18T01:35:57;92180.53;;;-144.06;28.32
11017;BME280;54687;50.800;6.772;2023-09-18T01:38:26;92163.59;;;-144.06;28.13
11017;BME280;54687;50.800;6.772;2023-09-18T01:40:54;92182.66;;;-144.06;28.18
11017;BME280;54687;50.800;6.772;2023-09-18T01:43:21;92191.09;;;-144.06;28.24
11017;BME280;54687;50.800;6.772;2023-09-18T01:45:48;92237.66;;;-144.06;28.24
11017;BME280;54687;50.800;6.772;2023-09-18T01:48:14;92216.50;;;-144.06;28.38
11017;BME280;54687;50.800;6.772;2023-09-18T01:50:41;92208.03;;;-144.06;28.32
11017;BME280;54687;50.800;6.772;2023-09-18T01:53:08;92153.03;;;-144.06;28.09
11017;BME280;54687;50.800;6.772;2023-09-18T01:55:34;92161.50;;;-144.06;28.07
11017;BME280;54687;50.800;6.772;2023-09-18T01:58:02;92176.31;;;-144.06;27.99
11017;BME280;54687;50.800;6.772;2023-09-18T02:00:29;92178.41;;;-144.06;28.22
11017;BME280;54687;50.800;6.772;2023-09-18T02:02:55;92174.19;;;-144.06;28.22
11017;BME280;54687;50.800;6.772;2023-09-18T02:05:23;92199.56;;;-144.06;28.26
11017;BME280;54687;50.800;6.772;2023-09-18T02:07:50;92184.75;;;-144.06;28.38
11017;BME280;54687;50.800;6.772;2023-09-18T02:10:16;92292.66;;;-144.06;28.52
11017;BME280;54687;50.800;6.772;2023-09-18T02:12:43;92345.53;;;-144.06;28.55
11017;BME280;54687;50.800;6.772;2023-09-18T02:15:11;92305.34;;;-144.06;28.65
11017;BME280;54687;50.800;6.772;2023-09-18T02:17:37;92326.50;;;-144.06;28.46
11017;BME280;54687;50.800;6.772;2023-09-18T02:20:05;92313.81;;;-144.06;28.60
11017;BME280;54687;50.800;6.772;2023-09-18T02:22:37;92495.72;;;-144.06;28.54
11017;BME280;54687;50.800;6.772;2023-09-18T02:25:06;92269.38;;;-144.06;28.30
11017;BME280;54687;50.800;6.772;2023-09-18T02:27:33;92279.94;;;-144.06;28.24
11017;BME280;54687;50.800;6.772;2023-09-18T02:30:00;92254.56;;;-144.06;28.60
11017;BME280;54687;50.800;6.772;2023-09-18T02:32:27;92241.88;;;-144.06;28.58
11017;BME280;54687;50.800;6.772;2023-09-18T02:34:55;92246.09;;;-144.06;28.46
11017;BME280;54687;50.800;6.772;2023-09-18T02:37:21;92279.94;;;-144.06;28.43
11017;BME280;54687;50.800;6.772;2023-09-18T02:39:49;92318.03;;;-144.06;28.60
11017;BME280;54687;50.800;6.772;2023-09-18T02:42:15;92252.44;;;-144.06;28.28
11017;BME280;54687;50.800;6.772;2023-09-18T02:44:42;92241.88;;;-144.06;28.42
11017;BME280;54687;50.800;6.772;2023-09-18T02:47:10;92216.50;;;-144.06;28.29
11017;BME280;54687;50.800;6.772;2023-09-18T02:49:38;92212.25;;;-144.06;28.18
11017;BME280;54687;50.800;6.772;2023-09-18T02:52:05;92227.06;;;-144.06;28.18
11017;BME280;54687;50.800;6.772;2023-09-18T02:54:31;92267.25;;;-144.06;28.23
11017;BME280;54687;50.800;6.772;2023-09-18T02:56:58;92233.41;;;-144.06;28.60
11017;BME280;54687;50.800;6.772;2023-09-18T02:59:25;92203.81;;;-144.06;28.44
11017;BME280;54687;50.800;6.772;2023-09-18T03:01:52;92216.50;;;-144.06;28.46
11017;BME280;54687;50.800;6.772;2023-09-18T03:04:18;92216.50;;;-144.06;28.34
11017;BME280;54687;50.800;6.772;2023-09-18T03:06:46;92282.06;;;-144.06;28.71
11017;BME280;54687;50.800;6.772;2023-09-18T03:09:13;92309.56;;;-144.06;28.75
11017;BME280;54687;50.800;6.772;2023-09-18T03:11:40;92273.59;;;-144.06;28.72
11017;BME280;54687;50.800;6.772;2023-09-18T03:14:07;92343.41;;;-144.06;28.87
11017;BME280;54687;50.800;6.772;2023-09-18T03:16:33;92385.72;;;-144.06;28.80
11017;BME280;54687;50.800;6.772;2023-09-18T03:19:00;92360.34;;;-144.06;28.60
11017;BME280;54687;50.800;6.772;2023-09-18T03:21:27;92370.91;;;-144.06;28.65
11017;BME280;54687;50.800;6.772;2023-09-18T03:23:55;92419.56;;;-144.06;28.87
11017;BME280;54687;50.800;6.772;2023-09-18T03:26:23;92438.63;;;-144.06;28.72
11017;BME280;54687;50.800;6.772;2023-09-18T03:28:49;92375.16;;;-144.06;28.55
11017;BME280;54687;50.800;6.772;2023-09-18T03:31:16;92351.88;;;-144.06;28.73
11017;BME280;54687;50.800;6.772;2023-09-18T03:33:43;92318.03;;;-144.06;28.71
11017;BME280;54687;50.800;6.772;2023-09-18T03:36:09;92252.44;;;-144.06;28.59
11017;BME280;54687;50.800;6.772;2023-09-18T03:38:37;92318.03;;;-144.06;28.87
11017;BME280;54687;50.800;6.772;2023-09-18T03:41:05;92339.19;;;-144.06;28.90
11017;BME280;54687;50.800;6.772;2023-09-18T03:43:31;92370.91;;;-144.06;28.82
11017;BME280;54687;50.800;6.772;2023-09-18T03:46:03;92290.53;;;-144.06;28.53
11017;BME280;54687;50.800;6.772;2023-09-18T03:48:30;92337.06;;;-144.06;28.81
11017;BME280;54687;50.800;6.772;2023-09-18T03:51:01;92334.97;;;-144.06;28.47
11017;BME280;54687;50.800;6.772;2023-09-18T03:53:28;92313.81;;;-144.06;28.60
11017;BME280;54687;50.800;6.772;2023-09-18T03:55:54;92326.50;;;-144.06;28.75
11017;BME280;54687;50.800;6.772;2023-09-18T03:58:22;92322.25;;;-144.06;28.60
11017;BME280;54687;50.800;6.772;2023-09-18T04:00:49;92303.22;;;-144.06;28.50
11017;BME280;54687;50.800;6.772;2023-09-18T04:03:16;92351.88;;;-144.06;28.48
11017;BME280;54687;50.800;6.772;2023-09-18T04:05:44;92364.56;;;-144.06;28.53
11017;BME280;54687;50.800;6.772;2023-09-18T04:08:10;92373.03;;;-144.06;28.52
11017;BME280;54687;50.800;6.772;2023-09-18T04:10:38;92368.81;;;-144.06;28.54
11017;BME280;54687;50.800;6.772;2023-09-18T04:13:05;92385.72;;;-144.06;28.47
11017;BME280;54687;50.800;6.772;2023-09-18T04:15:33;92419.56;;;-144.06;28.84
11017;BME280;54687;50.800;6.772;2023-09-18T04:18:03;92428.03;;;-144.06;28.51
11017;BME280;54687;50.800;6.772;2023-09-18T04:20:30;92415.34;;;-144.06;28.60
11017;BME280;54687;50.800;6.772;2023-09-18T04:23:20;92478.81;;;-144.06;28.92
11017;BME280;54687;50.800;6.772;2023-09-18T04:25:47;92428.03;;;-144.06;28.75
11017;BME280;54687;50.800;6.772;2023-09-18T04:28:15;92457.66;;;-144.06;28.68
11017;BME280;54687;50.800;6.772;2023-09-18T04:30:44;92461.88;;;-144.06;28.63
11017;BME280;54687;50.800;6.772;2023-09-18T04:33:11;92483.03;;;-144.06;28.85
11017;BME280;54687;50.800;6.772;2023-09-18T04:35:38;92495.72;;;-144.06;28.56
11017;BME280;54687;50.800;6.772;2023-09-18T04:38:06;92571.88;;;-144.06;28.77
11017;BME280;54687;50.800;6.772;2023-09-18T04:40:33;92506.31;;;-144.06;28.68
11017;BME280;54687;50.800;6.772;2023-09-18T04:43:00;92516.88;;;-144.06;28.73
11017;BME280;54687;50.800;6.772;2023-09-18T04:45:27;92521.13;;;-144.06;28.43
11017;BME280;54687;50.800;6.772;2023-09-18T04:47:55;92483.03;;;-144.06;28.54
11017;BME280;54687;50.800;6.772;2023-09-18T04:50:22;92409.00;;;-144.06;28.69
11017;BME280;54687;50.800;6.772;2023-09-18T04:52:48;92504.19;;;-144.06;28.60
11017;BME280;54687;50.800;6.772;2023-09-18T04:55:17;92499.97;;;-144.06;28.67
11017;BME280;54687;50.800;6.772;2023-09-18T04:57:44;92580.34;;;-144.06;29.09
11017;BME280;54687;50.800;6.772;2023-09-18T05:00:11;92664.97;;;-144.06;28.95
11017;BME280;54687;50.800;6.772;2023-09-18T05:02:39;92658.63;;;-144.06;28.76
11017;BME280;54687;50.800;6.772;2023-09-18T05:05:08;92597.28;;;-144.06;29.03
11017;BME280;54687;50.800;6.772;2023-09-18T05:07:35;92576.13;;;-144.06;28.80
11017;BME280;54687;50.800;6.772;2023-09-18T05:10:02;92527.47;;;-144.06;28.45
11017;BME280;54687;50.800;6.772;2023-09-18T05:12:30;92597.28;;;-144.06;28.78
11017;BME280;54687;50.800;6.772;2023-09-18T05:14:57;92563.44;;;-144.06;28.88
11017;BME280;54687;50.800;6.772;2023-09-18T05:17:40;92548.63;;;-144.06;28.70
11017;BME280;54687;50.800;6.772;2023-09-18T05:20:10;92525.34;;;-144.06;28.48
11017;BME280;54687;50.800;6.772;2023-09-18T05:22:39;92542.28;;;-144.06;28.40
11017;BME280;54687;50.800;6.772;2023-09-18T05:25:08;92554.97;;;-144.06;28.60
11017;BME280;54687;50.800;6.772;2023-09-18T05:27:35;92629.00;;;-144.06;28.46
11017;BME280;54687;50.800;6.772;2023-09-18T05:30:10;92593.03;;;-144.06;28.23
11017;BME280;54687;50.800;6.772;2023-09-18T05:32:37;92588.81;;;-144.06;28.36
11017;BME280;54687;50.800;6.772;2023-09-18T05:35:04;92609.97;;;-144.06;28.63
11017;BME280;54687;50.800;6.772;2023-09-18T05:37:33;92700.94;;;-144.06;28.38
11017;BME280;54687;50.800;6.772;2023-09-18T05:39:59;92696.72;;;-144.06;28.73
11017;BME280;54687;50.800;6.772;2023-09-18T05:42:26;92728.44;;;-144.06;28.70
11017;BME280;54687;50.800;6.772;2023-09-18T05:44:53;92713.63;;;-144.06;28.55
11017;BME280;54687;50.800;6.772;2023-09-18T05:47:19;92734.78;;;-144.06;28.40
11017;BME280;54687;50.800;6.772;2023-09-18T05:49:46;92692.47;;;-144.06;28.47
11017;BME280;54687;50.800;6.772;2023-09-18T05:52:13;92703.06;;;-144.06;28.64
11017;BME280;54687;50.800;6.772;2023-09-18T05:54:40;92686.13;;;-144.06;28.48
11017;BME280;54687;50.800;6.772;2023-09-18T05:57:07;92654.41;;;-144.06;28.25
11017;BME280;54687;50.800;6.772;2023-09-18T05:59:34;92626.91;;;-144.06;28.30
11017;BME280;54687;50.800;6.772;2023-09-18T06:02:00;92597.28;;;-144.06;28.34
11017;BME280;54687;50.800;6.772;2023-09-18T06:04:27;92629.00;;;-144.06;28.20
11017;BME280;54687;50.800;6.772;2023-09-18T06:06:54;92637.47;;;-144.06;28.73
11017;BME280;54687;50.800;6.772;2023-09-18T06:09:22;92656.50;;;-144.06;28.56
11017;BME280;54687;50.800;6.772;2023-09-18T06:11:50;92635.34;;;-144.06;28.53
11017;BME280;54687;50.800;6.772;2023-09-18T06:14:16;92593.03;;;-144.06;28.32
11017;BME280;54687;50.800;6.772;2023-09-18T06:16:43;92597.28;;;-144.06;28.47
11017;BME280;54687;50.800;6.772;2023-09-18T06:19:09;92546.50;;;-144.06;28.23
11017;BME280;54687;50.800;6.772;2023-09-18T06:21:36;92483.03;;;-144.06;28.17
11017;BME280;54687;50.800;6.772;2023-09-18T06:24:04;92404.75;;;-144.06;28.17
11017;BME280;54687;50.800;6.772;2023-09-18T06:26:31;92457.66;;;-144.06;28.06
11017;BME280;54687;50.800;6.772;2023-09-18T06:28:59;92514.75;;;-144.06;28.14
11017;BME280;54687;50.800;6.772;2023-09-18T06:31:26;92550.72;;;-144.06;28.18
11017;BME280;54687;50.800;6.772;2023-09-18T06:33:52;92504.19;;;-144.06;28.39
11017;BME280;54687;50.800;6.772;2023-09-18T06:36:19;92478.81;;;-144.06;28.35
11017;BME280;54687;50.800;6.772;2023-09-18T06:38:46;92525.34;;;-144.06;28.14
11017;BME280;54687;50.800;6.772;2023-09-18T06:41:12;92487.25;;;-144.06;27.96
11017;BME280;54687;50.800;6.772;2023-09-18T06:43:39;92499.97;;;-144.06;28.15
11017;BME280;54687;50.800;6.772;2023-09-18T06:46:08;92609.97;;;-144.06;28.50
11017;BME280;54687;50.800;6.772;2023-09-18T06:48:35;92569.78;;;-144.06;28.38
11017;BME280;54687;50.800;6.772;2023-09-18T06:51:01;92516.88;;;-144.06;28.05
11017;BME280;54687;50.800;6.772;2023-09-18T06:53:28;92499.97;;;-144.06;28.30
11017;BME280;54687;50.800;6.772;2023-09-18T06:55:55;92485.16;;;-144.06;27.94
11017;BME280;54687;50.800;6.772;2023-09-18T06:58:21;92493.63;;;-144.06;27.82
11017;BME280;54687;50.800;6.772;2023-09-18T07:00:48;92554.97;;;-144.06;28.01
11017;BME280;54687;50.800;6.772;2023-09-18T07:03:17;92483.03;;;-144.06;27.84
11017;BME280;54687;50.800;6.772;2023-09-18T07:05:43;92455.53;;;-144.06;28.04
11017;BME280;54687;50.800;6.772;2023-09-18T07:08:11;92373.03;;;-144.06;27.66
11017;BME280;54687;50.800;6.772;2023-09-18T07:10:38;92377.25;;;-144.06;27.86
11017;BME280;54687;50.800;6.772;2023-09-18T07:13:05;92385.72;;;-144.06;27.89
11017;BME280;54687;50.800;6.772;2023-09-18T07:15:31;92385.72;;;-144.06;27.89
11017;BME280;54687;50.800;6.772;2023-09-18T07:17:58;92351.88;;;-144.06;27.71
11017;BME280;54687;50.800;6.772;2023-09-18T07:20:26;92326.50;;;-144.06;27.57
11017;BME280;54687;50.800;6.772;2023-09-18T07:22:52;92296.88;;;-144.06;27.76
11017;BME280;54687;50.800;6.772;2023-09-18T07:25:19;92296.88;;;-144.06;27.58
11017;BME280;54687;50.800;6.772;2023-09-18T07:27:46;92256.69;;;-144.06;27.48
11017;BME280;54687;50.800;6.772;2023-09-18T07:30:14;92197.47;;;-144.06;27.58
11017;BME280;54687;50.800;6.772;2023-09-18T07:32:43;92263.03;;;-144.06;27.42
11017;BME280;54687;50.800;6.772;2023-09-18T07:35:10;92178.41;;;-144.06;27.51
11017;BME280;54687;50.800;6.772;2023-09-18T07:37:38;92201.69;;;-144.06;27.14
11017;BME280;54687;50.800;6.772;2023-09-18T07:40:06;92142.47;;;-144.06;27.44
11017;BME280;54687;50.800;6.772;2023-09-18T07:42:33;92258.81;;;-144.06;27.57
11017;BME280;54687;50.800;6.772;2023-09-18T07:45:00;92292.66;;;-144.06;27.67
11017;BME280;54687;50.800;6.772;2023-09-18T07:47:26;92277.84;;;-144.06;27.63
11017;BME280;54687;50.800;6.772;2023-09-18T07:49:53;92354.00;;;-144.06;27.78
11017;BME280;54687;50.800;6.772;2023-09-18T07:52:20;92301.09;;;-144.06;27.69
11017;BME280;54687;50.800;6.772;2023-09-18T07:54:48;92425.91;;;-144.06;27.69
11017;BME280;54687;50.800;6.772;2023-09-18T07:57:16;92364.56;;;-144.06;27.65
11017;BME280;54687;50.800;6.772;2023-09-18T07:59:44;92495.72;;;-144.06;27.82
11017;BME280;54687;50.800;6.772;2023-09-18T08:02:11;92339.19;;;-144.06;27.68
11017;BME280;54687;50.800;6.772;2023-09-18T08:04:38;92461.88;;;-144.06;27.70
11017;BME280;54687;50.800;6.772;2023-09-18T08:07:05;92364.56;;;-144.06;27.75
11017;BME280;54687;50.800;6.772;2023-09-18T08:09:32;92347.66;;;-144.06;27.52
11017;BME280;54687;50.800;6.772;2023-09-18T08:12:03;92320.16;;;-144.06;27.63
11017;BME280;54687;50.800;6.772;2023-09-18T08:14:30;92326.50;;;-144.06;27.61
11017;BME280;54687;50.800;6.772;2023-09-18T08:16:57;92254.56;;;-144.06;27.18
11017;BME280;54687;50.800;6.772;2023-09-18T08:19:25;92184.75;;;-144.06;27.52
11017;BME280;54687;50.800;6.772;2023-09-18T08:21:53;92231.31;;;-144.06;27.25
11017;BME280;54687;50.800;6.772;2023-09-18T08:24:19;92186.88;;;-144.06;27.38
11017;BME280;54687;50.800;6.772;2023-09-18T08:26:47;92311.69;;;-144.06;27.38
11017;BME280;54687;50.800;6.772;2023-09-18T08:29:15;92229.19;;;-144.06;27.39
11017;BME280;54687;50.800;6.772;2023-09-18T08:31:42;92085.34;;;-144.06;27.01
11017;BME280;54687;50.800;6.772;2023-09-18T08:34:08;92036.69;;;-144.06;27.16
11017;BME280;54687;50.800;6.772;2023-09-18T08:36:35;92070.53;;;-144.06;26.83
11017;BME280;54687;50.800;6.772;2023-09-18T08:39:01;92114.97;;;-144.06;26.85
11017;BME280;54687;50.800;6.772;2023-09-18T08:41:32;92072.66;;;-144.06;26.88
11017;BME280;54687;50.800;6.772;2023-09-18T08:44:01;92106.50;;;-144.06;26.79
11017;BME280;54687;50.800;6.772;2023-09-18T08:46:30;91998.63;;;-144.06;26.71
11017;BME280;54687;50.800;6.772;2023-09-18T08:49:00;91914.00;;;-144.06;26.70
11017;BME280;54687;50.800;6.772;2023-09-18T08:51:27;91933.06;;;-144.06;26.72
11017;BME280;54687;50.800;6.772;2023-09-18T08:53:55;92009.19;;;-144.06;26.67
11017;BME280;54687;50.800;6.772;2023-09-18T08:56:22;91823.06;;;-144.06;26.71
11017;BME280;54687;50.800;6.772;2023-09-18T08:58:49;92004.97;;;-144.06;26.82
11017;BME280;54687;50.800;6.772;2023-09-18T09:01:16;92009.19;;;-144.06;26.67
11017;BME280;54687;50.800;6.772;2023-09-18T09:03:44;91911.91;;;-144.06;26.51
11017;BME280;54687;50.800;6.772;2023-09-18T09:06:11;91839.97;;;-144.06;26.43
11017;BME280;54687;50.800;6.772;2023-09-18T09:08:38;91943.63;;;-144.06;26.32
11017;BME280;54687;50.800;6.772;2023-09-18T09:11:05;91920.34;;;-144.06;26.49
11017;BME280;54687;50.800;6.772;2023-09-18T09:13:32;91890.75;;;-144.06;26.39
11017;BME280;54687;50.800;6.772;2023-09-18T09:15:59;91930.94;;;-144.06;26.58
11017;BME280;54687;50.800;6.772;2023-09-18T09:18:27;91937.28;;;-144.06;26.32
11017;BME280;54687;50.800;6.772;2023-09-18T09:20:57;91920.34;;;-144.06;26.57
11017;BME280;54687;50.800;6.772;2023-09-18T09:23:25;91852.69;;;-144.06;26.55
11017;BME280;54687;50.800;6.772;2023-09-18T09:25:52;91861.13;;;-144.06;26.56
11017;BME280;54687;50.800;6.772;2023-09-18T09:28:29;91844.22;;;-144.06;26.33
11017;BME280;54687;50.800;6.772;2023-09-18T09:31:00;91791.34;;;-144.06;26.40
11017;BME280;54687;50.800;6.772;2023-09-18T09:33:27;91878.06;;;-144.06;26.40
11017;BME280;54687;50.800;6.772;2023-09-18T09:35:56;91689.81;;;-144.06;26.32
11017;BME280;54687;50.800;6.772;2023-09-18T09:38:28;91675.00;;;-144.06;26.19
11017;BME280;54687;50.800;6.772;2023-09-18T09:40:57;91691.94;;;-144.06;26.15
11017;BME280;54687;50.800;6.772;2023-09-18T09:43:25;91586.19;;;-144.06;26.06
11017;BME280;54687;50.800;6.772;2023-09-18T09:45:57;91810.38;;;-144.06;26.42
11017;BME280;54687;50.800;6.772;2023-09-18T09:48:24;91706.72;;;-144.06;26.22
11017;BME280;54687;50.800;6.772;2023-09-18T09:50:51;91960.53;;;-144.06;26.30
11017;BME280;54687;50.800;6.772;2023-09-18T09:53:41;91827.28;;;-144.06;26.22
11017;BME280;54687;50.800;6.772;2023-09-18T09:56:08;91867.47;;;-144.06;26.32
11017;BME280;54687;50.800;6.772;2023-09-18T09:58:34;91700.38;;;-144.06;26.30
11017;BME280;54687;50.800;6.772;2023-09-18T10:01:03;91484.66;;;-144.06;25.94
11017;BME280;54687;50.800;6.772;2023-09-18T10:03:36;91675.00;;;-144.06;26.14
11017;BME280;54687;50.800;6.772;2023-09-18T10:06:04;91672.91;;;-144.06;26.06
11017;BME280;54687;50.800;6.772;2023-09-18T10:08:33;91463.50;;;-144.06;25.86
11017;BME280;54687;50.800;6.772;2023-09-18T10:11:05;91440.25;;;-144.06;25.78
11017;BME280;54687;50.800;6.772;2023-09-18T10:13:38;91340.84;;;-144.06;25.71
11017;BME280;54687;50.800;6.772;2023-09-18T10:16:07;91167.44;;;-144.06;25.45
11017;BME280;54687;50.800;6.772;2023-09-18T10:18:39;91169.56;;;-144.06;25.68
11017;BME280;54687;50.800;6.772;2023-09-18T10:21:12;91444.47;;;-144.06;25.42
11017;BME280;54687;50.800;6.772;2023-09-18T10:23:59;91565.03;;;-144.06;25.40
11017;BME280;54687;50.800;6.772;2023-09-18T10:26:32;91476.19;;;-144.06;25.55
11017;BME280;54687;50.800;6.772;2023-09-18T10:29:00;91510.03;;;-144.06;25.61
11017;BME280;54687;50.800;6.772;2023-09-18T10:31:29;91573.50;;;-144.06;25.36
11017;BME280;54687;50.800;6.772;2023-09-18T10:33:58;91539.66;;;-144.06;25.77
11017;BME280;54687;50.800;6.772;2023-09-18T10:36:26;91488.88;;;-144.06;25.40
11017;BME280;54687;50.800;6.772;2023-09-18T10:38:56;91438.13;;;-144.06;25.39
11017;BME280;54687;50.800;6.772;2023-09-18T10:41:26;91539.66;;;-144.06;25.40
11017;BME280;54687;50.800;6.772;2023-09-18T10:43:53;91634.81;;;-144.06;25.68
11017;BME280;54687;50.800;6.772;2023-09-18T10:46:22;91387.38;;;-144.06;25.20
11017;BME280;54687;50.800;6.772;2023-09-18T10:48:49;91353.53;;;-144.06;25.28
11017;BME280;54687;50.800;6.772;2023-09-18T10:51:19;91328.16;;;-144.06;25.22
11017;BME280;54687;50.800;6.772;2023-09-18T10:53:47;91471.97;;;-144.06;25.08
11017;BME280;54687;50.800;6.772;2023-09-18T10:56:16;91256.25;;;-144.06;24.96
11017;BME280;54687;50.800;6.772;2023-09-18T10:58:43;91387.38;;;-144.06;24.94
11017;BME280;54687;50.800;6.772;2023-09-18T11:01:11;91590.41;;;-144.06;24.99
11017;BME280;54687;50.800;6.772;2023-09-18T11:03:38;91425.44;;;-144.06;25.02
11017;BME280;54687;50.800;6.772;2023-09-18T11:06:07;91197.06;;;-144.06;24.87
11017;BME280;54687;50.800;6.772;2023-09-18T11:08:36;91245.69;;;-144.06;24.73
11017;BME280;54687;50.800;6.772;2023-09-18T11:11:10;91476.19;;;-144.06;24.91
11017;BME280;54687;50.800;6.772;2023-09-18T11:13:42;91203.41;;;-144.06;25.12
11017;BME280;54687;50.800;6.772;2023-09-18T11:16:16;91116.69;;;-144.06;24.73
11017;BME280;54687;50.800;6.772;2023-09-18T11:18:47;91290.09;;;-144.06;24.78
11017;BME280;54687;50.800;6.772;2023-09-18T11:21:15;91201.28;;;-144.06;24.97
11017;BME280;54687;50.800;6.772;2023-09-18T11:23:44;91123.03;;;-144.06;24.75
11017;BME280;54687;50.800;6.772;2023-09-18T11:26:10;91061.72;;;-144.06;24.58
11017;BME280;54687;50.800;6.772;2023-09-18T11:28:37;91023.66;;;-144.06;24.15
11017;BME280;54687;50.800;6.772;2023-09-18T11:31:06;90638.81;;;-144.06;24.15
11017;BME280;54687;50.800;6.772;2023-09-18T11:33:34;90702.25;;;-144.06;24.25
11017;BME280;54687;50.800;6.772;2023-09-18T11:36:06;90795.28;;;-144.06;24.21
11017;BME280;54687;50.800;6.772;2023-09-18T11:38:51;90528.88;;;-144.06;23.81
11017;BME280;54687;50.800;6.772;2023-09-18T11:41:21;90609.22;;;-144.06;23.80
11017;BME280;54687;50.800;6.772;2023-09-18T11:43:48;90520.41;;;-144.06;24.07
11017;BME280;54687;50.800;6.772;2023-09-18T11:46:19;90740.31;;;-144.06;24.03
11017;BME280;54687;50.800;6.772;2023-09-18T11:48:47;90881.97;;;-144.06;23.91
11017;BME280;54687;50.800;6.772;2023-09-18T11:51:21;90862.94;;;-144.06;23.74
11017;BME280;54687;50.800;6.772;2023-09-18T11:53:52;90854.47;;;-144.06;24.02
11017;BME280;54687;50.800;6.772;2023-09-18T11:56:20;90850.25;;;-144.06;23.85
11017;BME280;54687;50.800;6.772;2023-09-18T11:58:47;90892.53;;;-144.06;24.04
11017;BME280;54687;50.800;6.772;2023-09-18T12:01:14;90934.84;;;-144.06;23.77
11017;BME280;54687;50.800;6.772;2023-09-18T12:03:42;90862.94;;;-144.06;23.74
11017;BME280;54687;50.800;6.772;2023-09-18T12:06:10;90922.16;;;-144.06;23.57
11017;BME280;54687;50.800;6.772;2023-09-18T12:08:39;90964.44;;;-144.06;23.75
11017;BME280;54687;50.800;6.772;2023-09-18T12:11:06;91051.13;;;-144.06;23.82
11017;BME280;54687;50.800;6.772;2023-09-18T12:13:33;90742.41;;;-144.06;23.68
11017;BME280;54687;50.800;6.772;2023-09-18T12:16:01;90943.28;;;-144.06;23.78
11017;BME280;54687;50.800;6.772;2023-09-18T12:18:30;90736.06;;;-144.06;23.33
11017;BME280;54687;50.800;6.772;2023-09-18T12:21:01;90765.69;;;-144.06;23.76
11017;BME280;54687;50.800;6.772;2023-09-18T12:23:37;91023.66;;;-144.06;23.47
11017;BME280;54687;50.800;6.772;2023-09-18T12:26:04;90896.78;;;-144.06;23.55
11017;BME280;54687;50.800;6.772;2023-09-18T12:28:33;90934.84;;;-144.06;23.62
11017;BME280;54687;50.800;6.772;2023-09-18T12:30:59;90972.91;;;-144.06;23.65
11017;BME280;54687;50.800;6.772;2023-09-18T12:33:34;90892.53;;;-144.06;23.35
11017;BME280;54687;50.800;6.772;2023-09-18T12:36:03;90643.03;;;-144.06;23.53
11017;BME280;54687;50.800;6.772;2023-09-18T12:38:30;90486.56;;;-144.06;23.26
11017;BME280;54687;50.800;6.772;2023-09-18T12:40:58;90702.25;;;-144.06;23.24
11017;BME280;54687;50.800;6.772;2023-09-18T12:43:33;90640.94;;;-144.06;23.47
11017;BME280;54687;50.800;6.772;2023-09-18T12:46:00;90448.53;;;-144.06;23.32